KHUM/HUM METAR and TAF weather

Enter ICAO airport designator
Station Type Date Time Source
KHUM METAR 2020/12/05 06:15 UTC NOAA

KHUM 050615Z AUTO 34004KT 7SM CLR 08/06 A3023 RMK AO2 T00750055


Station Type Date Time Source
KHUM Decoded METAR 2020/12/05 06:15 UTC NOAA

Houma-Terrebonne, LA, United States (KHUM) 29-34N 090-40W
Dec 05, 2020 - 01:15 AM EST / 2020.12.05 0615 UTC
Wind: from the NNW (340 degrees) at 5 MPH (4 KT):0
Visibility: 7 mile(s):0
Sky conditions: clear
Temperature: 45.5 F (7.5 C)
Dew Point: 41.9 F (5.5 C)
Relative Humidity: 87%
Pressure (altimeter): 30.23 in. Hg (1023 hPa)
ob: KHUM 050615Z AUTO 34004KT 7SM CLR 08/06 A3023 RMK AO2 T00750055
cycle: 6

Station Type Date Time Source
KHUM TAF 2020/12/05 06:28 UTC NOAA

TAF KHUM 050526Z 0506/0606 33004KT P6SM SKC

Example: see airport list